Time;durP1;ratioP1;P1;durP2;ratioP2;P2;SDS_P1;SDS_P2;PMS_P1;PMS_P2;Temp;Humidity;BMP_temperature;BMP_pressure;BME280_temperature;BME280_humidity;BME280_pressure;Samples;Min_cycle;Max_cycle;Signal;HPM_P1;HPM_P2
2022/04/26 14:23:21;;;;;;;22.22;16.62;;;;;;;9.66;100.00;98920.39;1797728;79;23999;-69
2022/04/26 14:25:48;;;;;;;22.27;16.60;;;;;;;9.65;100.00;98928.67;1757614;81;21003;-67
2022/04/26 14:28:14;;;;;;;22.55;16.73;;;;;;;9.66;100.00;98931.11;1757406;81;21269;-70
2022/04/26 14:30:42;;;;;;;21.62;17.02;;;;;;;9.71;100.00;98933.00;1756500;81;20924;-69
2022/04/26 14:33:09;;;;;;;24.77;17.35;;;;;;;9.75;100.00;98937.28;1753242;80;20928;-69
2022/04/26 14:35:38;;;;;;;24.57;17.20;;;;;;;9.81;100.00;98935.70;1754038;80;21503;-68
2022/04/26 14:38:07;;;;;;;27.67;18.62;;;;;;;9.85;100.00;98934.66;1756545;81;21079;-68
2022/04/26 14:40:34;;;;;;;27.95;19.23;;;;;;;9.88;100.00;98940.83;1757409;81;21270;-68
2022/04/26 14:43:02;;;;;;;29.90;18.92;;;;;;;9.93;100.00;98942.18;1749923;81;20972;-69
2022/04/26 14:45:32;;;;;;;26.12;17.87;;;;;;;10.03;100.00;98941.40;1749063;82;21464;-67
2022/04/26 14:48:00;;;;;;;28.52;17.17;;;;;;;10.12;100.00;98933.11;1749121;82;20979;-67
2022/04/26 14:50:27;;;;;;;25.32;15.13;;;;;;;10.15;100.00;98945.98;1720492;82;20941;-68
2022/04/26 14:52:54;;;;;;;24.12;14.95;;;;;;;10.15;100.00;98945.19;1749190;82;21156;-68
2022/04/26 14:55:22;;;;;;;19.45;14.55;;;;;;;10.21;100.00;98949.47;1757337;80;21580;-68
2022/04/26 14:57:50;;;;;;;21.20;15.23;;;;;;;10.27;100.00;98947.88;1765503;80;21526;-69
2022/04/26 15:00:18;;;;;;;22.22;17.37;;;;;;;10.34;100.00;98957.55;1789046;80;21526;-66
2022/04/26 15:02:45;;;;;;;16.52;13.08;;;;;;;10.36;100.00;98962.13;1792682;80;20928;-71
2022/04/26 15:05:13;;;;;;;21.65;15.53;;;;;;;10.36;100.00;98960.78;1791787;80;21161;-70
2022/04/26 15:10:10;;;;;;;19.45;13.93;;;;;;;10.31;100.00;98958.89;1727128;80;20984;-69
2022/04/26 15:18:02;;;;;;;18.90;14.13;;;;;;;10.29;100.00;98965.09;1791938;80;21338;-68
2022/04/26 15:20:29;;;;;;;18.60;14.53;;;;;;;10.28;100.00;98958.89;1792144;80;20849;-69
2022/04/26 15:22:56;;;;;;;20.02;14.90;;;;;;;10.31;100.00;98969.63;1787770;80;20933;-68
2022/04/26 15:25:23;;;;;;;23.98;14.85;;;;;;;10.34;100.00;98973.65;1786727;80;20960;-67
2022/04/26 15:27:52;;;;;;;;;;;;;;;10.35;100.00;98978.77;1789289;80;20944;-68
2022/04/26 15:30:20;;;;;;;;;;;;;;;10.36;100.00;98972.86;1775492;80;20083;-70
2022/04/26 15:32:47;;;;;;;87.02;78.20;;;;;;;10.36;100.00;98968.29;1744197;82;20103;-68
2022/04/26 15:35:14;;;;;;;26.48;20.70;;;;;;;10.37;100.00;98977.97;1743736;82;20921;-69
2022/04/26 15:37:41;;;;;;;116.65;61.30;;;;;;;10.36;100.00;98977.68;1743229;82;20910;-69
2022/04/26 15:40:09;;;;;;;275.62;140.97;;;;;;;10.37;100.00;98977.97;1743950;82;20926;-69
2022/04/26 15:42:36;;;;;;;97.50;52.70;;;;;;;10.36;100.00;98983.05;1744078;82;21128;-67
2022/04/26 15:45:06;;;;;;;80.42;45.38;;;;;;;10.35;100.00;98983.33;1743751;82;20925;-69
2022/04/26 15:47:37;;;;;;;26.00;16.15;;;;;;;10.31;100.00;98983.03;1743633;82;21663;-68
2022/04/26 15:50:06;;;;;;;18.48;13.75;;;;;;;10.30;100.00;98989.48;1743639;82;20980;-67
2022/04/26 15:52:35;;;;;;;14.73;11.57;;;;;;;10.23;100.00;98988.36;1743865;82;20948;-68
2022/04/26 15:55:26;;;;;;;11.35;9.83;;;;;;;10.20;100.00;98988.09;1743383;81;21002;-68
2022/04/26 15:57:54;;;;;;;12.45;10.20;;;;;;;10.16;100.00;98995.05;1616800;87;21489;-68
2022/04/26 16:00:22;;;;;;;11.97;9.80;;;;;;;10.09;100.00;98992.61;1616780;88;20976;-69
2022/04/26 16:02:51;;;;;;;12.70;9.85;;;;;;;10.04;100.00;98997.45;1614012;89;21016;-71
2022/04/26 16:05:18;;;;;;;10.00;8.23;;;;;;;9.99;100.00;99002.77;1614337;87;21047;-69
2022/04/26 16:07:45;;;;;;;9.90;8.70;;;;;;;9.91;100.00;98996.59;1616980;88;21270;-68
2022/04/26 16:21:22;;;;;;;10.30;8.25;;;;;;;9.75;100.00;99021.70;1639426;87;21067;-69
2022/04/26 16:23:49;;;;;;;18.73;12.50;;;;;;;9.72;100.00;99025.72;1639452;87;21509;-68
2022/04/26 16:26:19;;;;;;;;;;;;;;;9.72;100.00;99023.58;1641853;87;21079;-70
2022/04/26 16:28:46;;;;;;;12.35;10.30;;;;;;;9.71;100.00;99034.03;1655565;86;20125;-69
2022/04/26 16:31:16;;;;;;;12.05;9.60;;;;;;;9.69;100.00;99034.28;1652226;86;20906;-69
2022/04/26 16:33:45;;;;;;;11.12;9.58;;;;;;;9.69;100.00;99038.84;1605368;87;21500;-69
2022/04/26 16:36:11;;;;;;;15.85;12.25;;;;;;;9.68;100.00;99043.91;1607056;89;20871;-68
2022/04/26 16:38:40;;;;;;;20.10;12.93;;;;;;;9.65;100.00;99038.03;1607180;89;20990;-69
2022/04/26 16:41:07;;;;;;;13.48;10.25;;;;;;;9.64;100.00;99047.12;1606858;89;20985;-69
2022/04/26 16:43:34;;;;;;;10.32;9.03;;;;;;;9.63;100.00;99049.53;1607051;89;21591;-68
2022/04/26 16:46:01;;;;;;;12.55;9.30;;;;;;;9.62;100.00;99054.61;1607151;88;21295;-68
2022/04/26 16:48:29;;;;;;;13.80;9.80;;;;;;;9.61;100.00;99054.34;1607029;89;21066;-67
2022/04/26 16:50:55;;;;;;;18.80;11.75;;;;;;;9.59;100.00;99057.01;1615836;87;20978;-68
2022/04/26 16:53:23;;;;;;;13.22;10.75;;;;;;;9.57;100.00;99067.17;1624210;85;20901;-67
2022/04/26 16:55:50;;;;;;;11.00;8.53;;;;;;;9.53;100.00;99068.75;1624134;86;21556;-69
2022/04/26 16:58:18;;;;;;;11.10;9.03;;;;;;;9.47;100.00;99070.59;1663438;86;21263;-68
2022/04/26 17:00:48;;;;;;;10.85;7.95;;;;;;;9.39;100.00;99077.24;1652871;86;21003;-69
2022/04/26 17:03:18;;;;;;;7.42;6.55;;;;;;;9.27;100.00;99077.96;1611911;88;20932;-71
2022/04/26 17:05:47;;;;;;;6.92;6.17;;;;;;;9.17;100.00;99082.70;1611748;87;20939;-70
2022/04/26 17:08:16;;;;;;;7.25;6.55;;;;;;;9.10;100.00;99089.34;1611780;87;20979;-69
2022/04/26 17:10:47;;;;;;;7.75;5.90;;;;;;;8.98;100.00;99087.63;1612168;89;21255;-70
2022/04/26 17:13:15;;;;;;;6.80;5.80;;;;;;;8.89;100.00;99095.03;1611598;89;20975;-68
2022/04/26 17:15:43;;;;;;;7.37;6.62;;;;;;;8.82;100.00;99102.45;1611699;89;21022;-68
2022/04/26 17:18:14;;;;;;;9.05;6.10;;;;;;;8.73;100.00;99098.11;1611783;89;20935;-69
2022/04/26 17:20:41;;;;;;;6.58;5.87;;;;;;;8.65;100.00;99105.23;1611716;88;20962;-69
2022/04/26 17:23:10;;;;;;;7.00;6.30;;;;;;;8.60;100.00;99097.98;1611779;87;26531;-68
2022/04/26 17:25:37;;;;;;;6.05;5.45;;;;;;;8.58;100.00;99104.11;1611924;87;20983;-69
2022/04/26 17:28:07;;;;;;;;;;;;;;;8.57;100.00;99103.81;1614135;88;20990;-69
2022/04/26 17:30:36;;;;;;;6.78;6.17;;;;;;;8.57;100.00;99111.84;1634617;86;20110;-68
2022/04/26 17:33:05;;;;;;;6.47;5.87;;;;;;;8.54;100.00;99108.34;1664904;86;21038;-68
2022/04/26 17:35:32;;;;;;;8.03;5.90;;;;;;;8.58;100.00;99110.80;1635170;87;21145;-69
2022/04/26 17:37:59;;;;;;;12.80;6.17;;;;;;;8.59;100.00;99117.22;1643732;86;20959;-69
2022/04/26 17:40:27;;;;;;;7.12;5.92;;;;;;;8.62;100.00;99123.13;1635973;87;21049;-68
2022/04/26 17:42:54;;;;;;;6.47;5.80;;;;;;;8.65;100.00;99119.44;1666687;86;20873;-69
2022/04/26 17:45:22;;;;;;;11.03;6.30;;;;;;;8.72;100.00;99123.23;1634983;86;21036;-67
2022/04/26 17:47:50;;;;;;;8.05;6.42;;;;;;;8.71;100.00;99133.67;1664963;86;20916;-67
2022/04/26 17:50:16;;;;;;;6.83;6.08;;;;;;;8.71;100.00;99133.67;1664969;86;20944;-67
2022/04/26 17:58:14;;;;;;;9.13;6.30;;;;;;;8.74;100.00;99143.33;1644992;85;20971;-70
2022/04/26 18:00:42;;;;;;;8.20;6.28;;;;;;;8.73;100.00;99148.41;1625483;87;21184;-68
2022/04/26 18:03:09;;;;;;;7.42;6.20;;;;;;;8.73;100.00;99151.09;1649695;87;21010;-67
2022/04/26 18:05:38;;;;;;;6.95;6.15;;;;;;;8.74;100.00;99153.23;1649900;86;21612;-68
2022/04/26 18:08:07;;;;;;;9.18;5.58;;;;;;;8.74;100.00;99158.58;1649801;87;21551;-68
2022/04/26 18:10:34;;;;;;;8.63;5.80;;;;;;;8.71;100.00;99159.89;1660219;85;21597;-68
2022/04/26 18:13:01;;;;;;;6.35;5.75;;;;;;;8.69;100.00;99165.22;1640916;87;21182;-66
2022/04/26 18:15:28;;;;;;;5.08;4.58;;;;;;;8.70;100.00;99166.84;1640837;87;20940;-67
2022/04/26 18:17:56;;;;;;;13.18;7.08;;;;;;;8.70;100.00;99169.52;1641049;87;20904;-67
2022/04/26 18:20:23;;;;;;;12.03;9.70;;;;;;;8.71;100.00;99173.27;1641126;87;21024;-68
2022/04/26 18:22:51;;;;;;;71.45;63.80;;;;;;;8.72;100.00;99181.59;1640984;87;20983;-67
2022/04/26 18:26:10;;;;;;;136.45;68.37;;;;;;;8.70;100.00;99185.05;1640915;87;21171;-68
2022/04/26 18:27:48;;;;;;;432.17;179.70;;;;;;;8.71;100.00;99188.52;1638875;87;21554;-66
2022/04/26 18:30:15;;;;;;;111.37;52.03;;;;;;;8.71;100.00;99190.66;1641032;87;20924;-69
2022/04/26 18:32:42;;;;;;;192.98;87.50;;;;;;;8.70;100.00;99190.93;1660753;86;20896;-68
2022/04/26 18:35:11;;;;;;;255.67;133.00;;;;;;;8.70;100.00;99194.95;1640883;87;21308;-67
2022/04/26 18:37:39;;;;;;;133.70;79.25;;;;;;;8.70;100.00;99193.07;1640798;87;21013;-67
2022/04/26 18:40:08;;;;;;;179.30;107.12;;;;;;;8.70;100.00;99199.76;1640932;87;21009;-65
2022/04/26 18:42:35;;;;;;;177.27;93.20;;;;;;;8.69;100.00;99202.14;1620691;87;20924;-66
2022/04/26 18:45:07;;;;;;;100.65;54.03;;;;;;;8.69;100.00;99200.00;1614507;89;20968;-68
2022/04/26 18:47:33;;;;;;;61.23;39.05;;;;;;;8.68;100.00;99203.75;1630041;87;20931;-67
2022/04/26 18:50:00;;;;;;;40.25;26.95;;;;;;;8.67;100.00;99201.61;1640856;87;21585;-66
2022/04/26 18:52:28;;;;;;;23.20;17.12;;;;;;;8.67;100.00;99206.13;1640958;87;20971;-67
2022/04/26 18:54:56;;;;;;;34.40;25.53;;;;;;;8.66;100.00;99205.85;1641253;86;20964;-67
2022/04/26 18:57:23;;;;;;;15.58;13.55;;;;;;;8.67;100.00;99206.95;1637167;87;20996;-68
2022/04/26 18:59:51;;;;;;;;;;;;;;;8.68;100.00;99213.11;1640209;87;21015;-67
2022/04/26 19:02:19;;;;;;;19.30;15.38;;;;;;;8.67;100.00;99208.80;1637855;87;21149;-68
2022/04/26 19:04:47;;;;;;;46.00;31.80;;;;;;;8.69;100.00;99215.52;1637498;87;21023;-69
2022/04/26 19:07:14;;;;;;;37.85;29.15;;;;;;;8.69;100.00;99210.70;1637547;87;20904;-68
2022/04/26 19:12:15;;;;;;;19.55;14.55;;;;;;;8.67;100.00;99216.32;1637612;87;21071;-67
2022/04/26 19:12:18;;;;;;;30.65;21.52;;;;;;;8.67;100.00;99213.64;1637609;87;20927;-67
2022/04/26 19:14:46;;;;;;;27.10;19.02;;;;;;;8.69;100.00;99212.04;1637700;87;20948;-70
2022/04/26 19:17:17;;;;;;;66.30;37.30;;;;;;;8.66;100.00;99212.01;1637921;87;21483;-69
2022/04/26 19:19:44;;;;;;;49.90;31.97;;;;;;;8.65;100.00;99214.42;1637762;87;21439;-68
2022/04/26 19:22:12;;;;;;;55.43;32.50;;;;;;;8.63;100.00;99215.19;1637682;87;21071;-68
2022/04/26 19:24:40;;;;;;;70.80;39.67;;;;;;;8.62;100.00;99216.77;1637883;87;20979;-67
2022/04/26 19:27:09;;;;;;;76.10;44.58;;;;;;;8.61;100.00;99218.64;1637931;87;21199;-69
2022/04/26 19:29:37;;;;;;;61.60;35.63;;;;;;;8.57;100.00;99217.00;1637964;87;21010;-69
2022/04/26 19:32:06;;;;;;;35.37;22.20;;;;;;;8.55;100.00;99215.63;1645485;87;21410;-69
2022/04/26 19:34:34;;;;;;;38.42;23.67;;;;;;;8.54;100.00;99221.48;1644913;87;21023;-68
2022/04/26 19:37:05;;;;;;;25.68;16.65;;;;;;;8.56;100.00;99215.91;1645164;87;21568;-67
2022/04/26 19:39:33;;;;;;;27.25;20.00;;;;;;;8.57;100.00;99218.34;1637998;86;21577;-67
2022/04/26 19:42:01;;;;;;;16.65;12.73;;;;;;;8.55;100.00;99220.45;1633470;86;21054;-66
2022/04/26 19:44:27;;;;;;;13.60;11.10;;;;;;;8.53;100.00;99220.42;1638099;86;21003;-66
2022/04/26 19:46:58;;;;;;;16.00;11.85;;;;;;;8.55;100.00;99216.97;1637627;86;21000;-67
2022/04/26 19:49:26;;;;;;;10.98;9.08;;;;;;;8.55;100.00;99222.32;1638451;87;21010;-69
2022/04/26 19:51:53;;;;;;;10.82;8.10;;;;;;;8.53;100.00;99223.09;1638190;87;21181;-66
2022/04/26 19:54:21;;;;;;;11.60;8.45;;;;;;;8.52;100.00;99219.59;1638106;87;20958;-68
2022/04/26 19:56:48;;;;;;;11.38;9.20;;;;;;;8.50;100.00;99217.72;1637851;85;21054;-67
2022/04/26 19:59:16;;;;;;;15.85;12.35;;;;;;;8.49;100.00;99219.28;1618160;87;21623;-65
2022/04/26 20:01:44;;;;;;;10.20;7.70;;;;;;;8.49;100.00;99230.79;1654426;86;25687;-66
2022/04/26 20:04:12;;;;;;;9.13;7.72;;;;;;;8.48;100.00;99221.69;1665223;86;21195;-64
2022/04/26 20:06:39;;;;;;;17.48;11.33;;;;;;;8.47;100.00;99227.55;1665247;86;20936;-66
2022/04/26 20:09:07;;;;;;;17.37;12.07;;;;;;;8.50;100.00;99230.25;1664406;85;22172;-66
2022/04/26 20:11:34;;;;;;;13.70;9.55;;;;;;;8.50;100.00;99234.27;1637723;87;20928;-64
2022/04/26 20:14:01;;;;;;;12.70;9.98;;;;;;;8.48;100.00;99231.05;1637887;87;21573;-66
2022/04/26 20:16:29;;;;;;;14.58;9.05;;;;;;;8.47;100.00;99232.90;1637976;87;26775;-68
2022/04/26 20:18:58;;;;;;;11.28;7.33;;;;;;;8.46;100.00;99239.31;1637977;86;21006;-69
2022/04/26 20:21:25;;;;;;;12.83;8.33;;;;;;;8.46;100.00;99241.19;1638843;87;20923;-68
2022/04/26 20:23:53;;;;;;;14.85;8.38;;;;;;;8.44;100.00;99245.44;1638895;87;20989;-68
2022/04/26 20:31:53;;;;;;;8.60;7.40;;;;;;;8.38;100.00;99249.88;1663879;86;20936;-66
2022/04/26 20:34:21;;;;;;;7.85;5.87;;;;;;;8.35;100.00;99241.02;1653539;86;21727;-67
2022/04/26 20:36:50;;;;;;;10.00;7.35;;;;;;;8.33;100.00;99242.33;1617386;87;20991;-68
2022/04/26 20:39:16;;;;;;;;;;;;;;;8.30;100.00;99246.27;1640353;87;20988;-65
2022/04/26 20:41:45;;;;;;;7.67;6.03;;;;;;;8.28;100.00;99247.07;1638151;87;20806;-66
2022/04/26 20:44:12;;;;;;;7.22;5.72;;;;;;;8.27;100.00;99244.63;1637667;87;20995;-67
2022/04/26 20:46:40;;;;;;;;;;;;;;;8.21;100.00;99241.09;1640305;87;21054;-68
2022/04/26 20:49:07;;;;;;;6.42;5.78;;;;;;;8.20;100.00;99244.80;1637789;86;20187;-63
2022/04/26 20:51:35;;;;;;;8.43;5.03;;;;;;;8.15;100.00;99241.52;1638164;87;20984;-66
2022/04/26 20:54:01;;;;;;;6.28;4.90;;;;;;;8.09;100.00;99238.50;1637790;86;21196;-64
2022/04/26 20:56:28;;;;;;;6.47;4.28;;;;;;;8.07;100.00;99242.48;1638000;87;21510;-67
2022/04/26 20:58:55;;;;;;;6.70;5.35;;;;;;;8.01;100.00;99244.27;1629454;87;21514;-67
2022/04/26 21:01:21;;;;;;;5.65;4.37;;;;;;;7.98;100.00;99239.93;1638300;87;21027;-66
2022/04/26 21:03:48;;;;;;;5.15;4.65;;;;;;;7.94;100.00;99240.95;1637998;87;21059;-66
2022/04/26 21:06:16;;;;;;;6.92;5.08;;;;;;;7.92;100.00;99242.52;1638291;87;21830;-66
2022/04/26 21:08:44;;;;;;;8.80;6.42;;;;;;;7.93;100.00;99239.32;1638165;87;21043;-65
2022/04/26 21:11:15;;;;;;;7.33;6.03;;;;;;;7.95;100.00;99244.70;1638013;87;21570;-62
2022/04/26 21:13:42;;;;;;;9.63;7.00;;;;;;;7.97;100.00;99242.33;1638234;87;20963;-63
2022/04/26 21:16:08;;;;;;;11.18;7.22;;;;;;;7.97;100.00;99245.00;1637970;87;21006;-64
2022/04/26 21:18:36;;;;;;;6.97;5.50;;;;;;;7.97;100.00;99247.14;1638098;87;20992;-65
2022/04/26 21:21:04;;;;;;;11.78;6.92;;;;;;;7.98;100.00;99244.74;1638110;87;21478;-66
2022/04/26 21:23:31;;;;;;;7.60;4.85;;;;;;;7.98;100.00;99254.63;1638113;87;21015;-65
2022/04/26 21:26:00;;;;;;;7.95;5.03;;;;;;;7.96;100.00;99254.86;1637767;86;21018;-67
2022/04/26 21:28:28;;;;;;;4.70;4.30;;;;;;;7.98;100.00;99254.63;1638171;87;21055;-65
2022/04/26 21:30:54;;;;;;;5.08;4.42;;;;;;;7.97;100.00;99260.50;1639201;86;21266;-64
2022/04/26 21:33:23;;;;;;;32.65;5.92;;;;;;;7.98;100.00;99267.99;1638143;86;21466;-65
2022/04/26 21:35:49;;;;;;;7.17;4.22;;;;;;;7.97;100.00;99269.86;1638131;87;21031;-65
2022/04/26 21:38:17;;;;;;;5.17;4.70;;;;;;;7.97;100.00;99270.39;1638231;87;21082;-67
2022/04/26 21:40:45;;;;;;;5.10;4.37;;;;;;;7.97;100.00;99266.38;1638207;87;21008;-63
2022/04/26 21:43:12;;;;;;;5.95;4.70;;;;;;;7.99;100.00;99277.11;1638116;87;21184;-66
2022/04/26 21:45:39;;;;;;;7.25;4.60;;;;;;;7.98;100.00;99274.67;1651119;86;21479;-63
2022/04/26 21:48:07;;;;;;;7.65;4.53;;;;;;;7.98;100.00;99279.48;1654224;86;21000;-67
2022/04/26 21:53:18;;;;;;;6.08;4.83;;;;;;;7.98;100.00;99280.82;1622515;87;20996;-65
2022/04/26 21:55:47;;;;;;;6.83;5.33;;;;;;;7.96;100.00;99288.27;1620167;88;21512;-65
2022/04/26 21:58:13;;;;;;;8.55;5.22;;;;;;;7.97;100.00;99290.44;1620955;87;21518;-66
2022/04/26 22:00:43;;;;;;;5.50;4.97;;;;;;;7.98;100.00;99293.38;1619774;88;21563;-65
2022/04/26 22:03:12;;;;;;;6.65;5.20;;;;;;;7.98;100.00;99288.84;1608735;89;20977;-66
2022/04/26 22:05:40;;;;;;;9.88;4.85;;;;;;;8.01;100.00;99304.91;1640035;86;21534;-65
2022/04/26 22:08:09;;;;;;;4.67;4.28;;;;;;;8.03;100.00;99305.48;1639902;87;21058;-65
2022/04/26 22:10:36;;;;;;;4.58;4.05;;;;;;;8.00;100.00;99311.33;1639928;87;21617;-64
2022/04/26 22:13:04;;;;;;;5.72;4.28;;;;;;;7.99;100.00;99315.06;1639957;87;25459;-65
2022/04/26 22:15:31;;;;;;;6.15;4.60;;;;;;;7.97;100.00;99306.47;1640076;87;21537;-67
2022/04/26 22:17:59;;;;;;;6.12;5.08;;;;;;;7.94;100.00;99300.55;1640110;86;21031;-67
2022/04/26 22:20:27;;;;;;;4.83;4.42;;;;;;;7.92;100.00;99299.98;1639700;86;21228;-66
2022/04/26 22:22:54;;;;;;;4.90;4.30;;;;;;;7.89;100.00;99297.80;1639680;87;21003;-64
2022/04/26 22:25:22;;;;;;;7.10;4.50;;;;;;;7.86;100.00;99307.65;1631879;86;21512;-64
2022/04/26 22:27:50;;;;;;;8.53;4.47;;;;;;;7.81;100.00;99306.20;1656201;86;20960;-66
2022/04/26 22:30:18;;;;;;;7.35;4.40;;;;;;;7.73;100.00;99297.25;1651226;86;21019;-66
2022/04/26 22:32:45;;;;;;;6.62;4.70;;;;;;;7.64;100.00;99303.53;1626375;88;21247;-66
2022/04/26 22:35:12;;;;;;;6.83;4.50;;;;;;;7.54;100.00;99297.98;1640098;87;20931;-66
2022/04/26 22:37:40;;;;;;;6.72;4.95;;;;;;;7.38;100.00;99304.11;1626448;88;21023;-65
2022/04/26 22:40:09;;;;;;;4.72;4.25;;;;;;;7.25;100.00;99298.52;1640145;86;21071;-67
2022/04/26 22:42:36;;;;;;;6.87;4.60;;;;;;;7.20;100.00;99289.08;1626510;88;21508;-65
2022/04/26 22:45:04;;;;;;;4.80;4.40;;;;;;;7.19;100.00;99292.80;1626487;87;21276;-67
2022/04/26 22:47:32;;;;;;;6.65;5.10;;;;;;;7.09;100.00;99294.22;1626702;88;20918;-66
2022/04/26 22:50:00;;;;;;;5.25;4.85;;;;;;;7.00;100.00;99300.17;1626739;87;21494;-67
2022/04/26 22:52:27;;;;;;;6.85;5.25;;;;;;;6.90;100.00;99295.97;1626363;88;21075;-67
2022/04/26 22:54:54;;;;;;;5.37;4.87;;;;;;;6.84;100.00;99300.39;1626596;88;21508;-67
2022/04/26 22:57:20;;;;;;;7.33;5.20;;;;;;;6.79;100.00;99305.09;1626398;88;21258;-66
2022/04/26 22:59:48;;;;;;;5.30;4.90;;;;;;;6.74;100.00;99311.66;1632911;87;20967;-66
2022/04/26 23:02:15;;;;;;;6.30;5.33;;;;;;;6.65;100.00;99315.72;1633204;87;21427;-68
2022/04/26 23:04:42;;;;;;;5.67;5.17;;;;;;;6.59;100.00;99309.97;1635471;87;21019;-67
2022/04/26 23:07:14;;;;;;;6.25;5.65;;;;;;;6.54;100.00;99316.53;1637238;87;20928;-68
2022/04/26 23:09:50;;;;;;;5.70;5.22;;;;;;;6.48;100.00;99312.95;1628193;87;22407;-67
2022/04/26 23:12:31;;;;;;;5.83;5.33;;;;;;;6.42;100.00;99312.03;1648393;86;21004;-66
2022/04/26 23:15:11;;;;;;;7.17;5.30;;;;;;;6.34;100.00;99312.36;1636728;87;21000;-65
2022/04/26 23:17:45;;;;;;;8.15;5.42;;;;;;;6.31;100.00;99312.03;1616175;87;21004;-65
2022/04/26 23:20:16;;;;;;;5.72;5.03;;;;;;;6.27;100.00;99312.19;1637069;86;21520;-64
2022/04/26 23:22:44;;;;;;;10.08;6.00;;;;;;;6.19;100.00;99310.16;1636941;86;21078;-65
2022/04/26 23:25:15;;;;;;;6.20;5.65;;;;;;;6.16;100.00;99315.95;1636635;87;21579;-63
2022/04/26 23:27:53;;;;;;;7.53;6.08;;;;;;;6.13;100.00;99316.42;1637158;86;20980;-66
2022/04/26 23:30:31;;;;;;;7.35;6.60;;;;;;;6.13;100.00;99314.28;1646361;86;21036;-67
2022/04/26 23:33:05;;;;;;;6.93;6.30;;;;;;;6.10;100.00;99320.05;1665417;86;20904;-66
2022/04/26 23:35:39;;;;;;;6.78;6.08;;;;;;;6.04;100.00;99320.45;1603866;88;21079;-64
2022/04/26 23:38:20;;;;;;;8.08;6.35;;;;;;;6.03;100.00;99313.52;1623437;88;21008;-64
2022/04/26 23:40:56;;;;;;;6.50;5.90;;;;;;;5.97;100.00;99320.55;1663516;86;20991;-67
2022/04/26 23:43:42;;;;;;;31.62;11.88;;;;;;;5.96;100.00;99324.80;1635216;87;21607;-65
2022/04/26 23:46:16;;;;;;;11.18;6.58;;;;;;;5.91;100.00;99327.31;1651709;86;21019;-63
2022/04/26 23:48:50;;;;;;;28.12;17.40;;;;;;;5.88;100.00;99333.08;1666728;86;21338;-66
2022/04/26 23:54:22;;;;;;;200.72;183.03;;;;;;;5.85;100.00;99327.69;1663615;86;20912;-67
2022/04/26 23:56:57;;;;;;;44.67;41.30;;;;;;;5.87;100.00;99338.13;1663409;86;20944;-67
2022/04/26 23:59:27;;;;;;;16.67;15.05;;;;;;;5.87;100.00;99333.59;1643300;86;21169;-65
